Ticaboo, Utah
Current Conditions -  °F | °C
As of 6:15 PM on Friday 24 Oct 2014 (Local Time) from KBDG Reporting Station
Clear Clear  
Wind Chill: 69°   Ceiling: Unl
Heat Index: 69°   Visibility: 10mi
Dew Point: 33°   Wind: 0mph
Humidity: 27%   Direction: NA
Pressure: 30.34"   Gusts: NA
Location:  37.6208°N, 109.479°W
Report Text: KBDG 250015Z AUTO 00000KT 10SM CLR 20/01 A3034 RMK AO1 T02040005
Loading
Personal Weather Stations






























Interactive Weather Map
Tropical Storm Tracking
New forecast layout! Learn more

10-Day Weather Forecast

Advertisements
Track Severe Weather on mobile